sensor_id;sensor_type;location;lat;lon;timestamp;temperature;humidity
51029;DHT22;37054;52.054;8.600;2024-02-21T00:00:12;13.80;60.90
51029;DHT22;37054;52.054;8.600;2024-02-21T00:02:38;13.70;60.90
51029;DHT22;37054;52.054;8.600;2024-02-21T00:05:04;13.70;61.00
51029;DHT22;37054;52.054;8.600;2024-02-21T00:07:29;13.70;60.90
51029;DHT22;37054;52.054;8.600;2024-02-21T00:09:55;13.70;61.00
51029;DHT22;37054;52.054;8.600;2024-02-21T00:12:21;13.70;60.90
51029;DHT22;37054;52.054;8.600;2024-02-21T00:14:46;13.70;61.00
51029;DHT22;37054;52.054;8.600;2024-02-21T00:17:12;13.70;61.00
51029;DHT22;37054;52.054;8.600;2024-02-21T00:19:37;13.70;61.00
51029;DHT22;37054;52.054;8.600;2024-02-21T00:22:03;13.80;61.00
51029;DHT22;37054;52.054;8.600;2024-02-21T00:24:29;13.70;61.00
51029;DHT22;37054;52.054;8.600;2024-02-21T00:26:54;13.70;60.80
51029;DHT22;37054;52.054;8.600;2024-02-21T00:29:20;13.70;60.80
51029;DHT22;37054;52.054;8.600;2024-02-21T00:31:45;13.70;60.90
51029;DHT22;37054;52.054;8.600;2024-02-21T00:34:11;13.70;60.90
51029;DHT22;37054;52.054;8.600;2024-02-21T00:36:38;13.70;61.00
51029;DHT22;37054;52.054;8.600;2024-02-21T00:39:03;13.80;60.70
51029;DHT22;37054;52.054;8.600;2024-02-21T00:41:29;13.80;60.80
51029;DHT22;37054;52.054;8.600;2024-02-21T00:43:55;13.70;60.60
51029;DHT22;37054;52.054;8.600;2024-02-21T00:46:20;13.70;60.80
51029;DHT22;37054;52.054;8.600;2024-02-21T00:48:46;13.70;60.50
51029;DHT22;37054;52.054;8.600;2024-02-21T00:51:11;13.70;60.70
51029;DHT22;37054;52.054;8.600;2024-02-21T00:53:36;13.70;60.50
51029;DHT22;37054;52.054;8.600;2024-02-21T00:56:07;13.70;60.50
51029;DHT22;37054;52.054;8.600;2024-02-21T00:58:32;13.70;60.60
51029;DHT22;37054;52.054;8.600;2024-02-21T01:00:58;13.70;60.40
51029;DHT22;37054;52.054;8.600;2024-02-21T01:03:23;13.70;60.40
51029;DHT22;37054;52.054;8.600;2024-02-21T01:05:49;13.70;60.60
51029;DHT22;37054;52.054;8.600;2024-02-21T01:08:14;13.80;60.50
51029;DHT22;37054;52.054;8.600;2024-02-21T01:10:40;13.80;60.50
51029;DHT22;37054;52.054;8.600;2024-02-21T01:13:06;13.80;60.20
51029;DHT22;37054;52.054;8.600;2024-02-21T01:15:32;13.80;60.20
51029;DHT22;37054;52.054;8.600;2024-02-21T01:17:58;13.70;60.40
51029;DHT22;37054;52.054;8.600;2024-02-21T01:20:24;13.80;60.20
51029;DHT22;37054;52.054;8.600;2024-02-21T01:22:49;13.80;60.30
51029;DHT22;37054;52.054;8.600;2024-02-21T01:25:15;13.80;60.20
51029;DHT22;37054;52.054;8.600;2024-02-21T01:27:40;13.80;60.10
51029;DHT22;37054;52.054;8.600;2024-02-21T01:30:06;13.80;60.10
51029;DHT22;37054;52.054;8.600;2024-02-21T01:32:32;13.80;60.10
51029;DHT22;37054;52.054;8.600;2024-02-21T01:34:57;13.80;60.00
51029;DHT22;37054;52.054;8.600;2024-02-21T01:37:23;13.80;60.00
51029;DHT22;37054;52.054;8.600;2024-02-21T01:39:48;13.80;59.80
51029;DHT22;37054;52.054;8.600;2024-02-21T01:42:14;13.80;60.00
51029;DHT22;37054;52.054;8.600;2024-02-21T01:44:40;13.80;60.10
51029;DHT22;37054;52.054;8.600;2024-02-21T01:47:07;13.80;60.10
51029;DHT22;37054;52.054;8.600;2024-02-21T01:49:33;13.80;59.90
51029;DHT22;37054;52.054;8.600;2024-02-21T01:51:59;13.80;59.90
51029;DHT22;37054;52.054;8.600;2024-02-21T01:54:25;13.80;60.10
51029;DHT22;37054;52.054;8.600;2024-02-21T01:56:54;13.80;60.10
51029;DHT22;37054;52.054;8.600;2024-02-21T01:59:20;13.80;60.00
51029;DHT22;37054;52.054;8.600;2024-02-21T02:01:46;13.80;59.80
51029;DHT22;37054;52.054;8.600;2024-02-21T02:04:13;13.80;59.80
51029;DHT22;37054;52.054;8.600;2024-02-21T02:06:39;13.80;59.60
51029;DHT22;37054;52.054;8.600;2024-02-21T02:09:05;13.80;59.70
51029;DHT22;37054;52.054;8.600;2024-02-21T02:11:32;13.80;59.70
51029;DHT22;37054;52.054;8.600;2024-02-21T02:13:57;13.80;59.50
51029;DHT22;37054;52.054;8.600;2024-02-21T02:16:23;13.80;59.60
51029;DHT22;37054;52.054;8.600;2024-02-21T02:18:48;13.80;59.60
51029;DHT22;37054;52.054;8.600;2024-02-21T02:21:35;13.80;59.60
51029;DHT22;37054;52.054;8.600;2024-02-21T02:24:03;13.80;59.70
51029;DHT22;37054;52.054;8.600;2024-02-21T02:26:30;13.80;59.60
51029;DHT22;37054;52.054;8.600;2024-02-21T02:28:55;13.80;59.80
51029;DHT22;37054;52.054;8.600;2024-02-21T02:31:21;13.80;59.80
51029;DHT22;37054;52.054;8.600;2024-02-21T02:33:46;13.80;59.80
51029;DHT22;37054;52.054;8.600;2024-02-21T02:36:13;13.80;59.60
51029;DHT22;37054;52.054;8.600;2024-02-21T02:38:39;13.80;59.50
51029;DHT22;37054;52.054;8.600;2024-02-21T02:41:05;13.80;59.60
51029;DHT22;37054;52.054;8.600;2024-02-21T02:43:30;13.80;59.60
51029;DHT22;37054;52.054;8.600;2024-02-21T02:45:57;13.80;59.70
51029;DHT22;37054;52.054;8.600;2024-02-21T02:48:22;13.80;59.50
51029;DHT22;37054;52.054;8.600;2024-02-21T02:50:48;13.80;59.60
51029;DHT22;37054;52.054;8.600;2024-02-21T02:53:15;13.80;59.40
51029;DHT22;37054;52.054;8.600;2024-02-21T02:55:40;13.80;59.50
51029;DHT22;37054;52.054;8.600;2024-02-21T02:58:05;13.80;59.30
51029;DHT22;37054;52.054;8.600;2024-02-21T03:00:31;13.80;59.20
51029;DHT22;37054;52.054;8.600;2024-02-21T03:03:01;13.70;59.40
51029;DHT22;37054;52.054;8.600;2024-02-21T03:05:29;13.80;59.30
51029;DHT22;37054;52.054;8.600;2024-02-21T03:07:54;13.70;59.30
51029;DHT22;37054;52.054;8.600;2024-02-21T03:10:20;13.80;59.40
51029;DHT22;37054;52.054;8.600;2024-02-21T03:12:46;13.70;59.40
51029;DHT22;37054;52.054;8.600;2024-02-21T03:15:12;13.70;59.50
51029;DHT22;37054;52.054;8.600;2024-02-21T03:17:38;13.70;59.10
51029;DHT22;37054;52.054;8.600;2024-02-21T03:20:04;13.70;59.40
51029;DHT22;37054;52.054;8.600;2024-02-21T03:22:39;13.70;59.50
51029;DHT22;37054;52.054;8.600;2024-02-21T03:25:05;13.70;59.50
51029;DHT22;37054;52.054;8.600;2024-02-21T03:27:31;13.70;59.60
51029;DHT22;37054;52.054;8.600;2024-02-21T03:29:57;13.70;59.40
51029;DHT22;37054;52.054;8.600;2024-02-21T03:32:22;13.70;59.20
51029;DHT22;37054;52.054;8.600;2024-02-21T03:34:48;13.70;59.50
51029;DHT22;37054;52.054;8.600;2024-02-21T03:37:14;13.80;59.50
51029;DHT22;37054;52.054;8.600;2024-02-21T03:39:39;13.80;59.20
51029;DHT22;37054;52.054;8.600;2024-02-21T03:42:05;13.80;59.20
51029;DHT22;37054;52.054;8.600;2024-02-21T03:44:31;13.80;59.30
51029;DHT22;37054;52.054;8.600;2024-02-21T03:46:58;13.80;59.30
51029;DHT22;37054;52.054;8.600;2024-02-21T03:49:24;13.80;59.30
51029;DHT22;37054;52.054;8.600;2024-02-21T03:51:49;13.80;59.30
51029;DHT22;37054;52.054;8.600;2024-02-21T03:54:14;13.80;59.20
51029;DHT22;37054;52.054;8.600;2024-02-21T03:56:40;13.80;59.30
51029;DHT22;37054;52.054;8.600;2024-02-21T03:59:07;13.80;59.10
51029;DHT22;37054;52.054;8.600;2024-02-21T04:01:36;13.80;59.00
51029;DHT22;37054;52.054;8.600;2024-02-21T04:04:02;13.80;59.20
51029;DHT22;37054;52.054;8.600;2024-02-21T04:06:28;13.80;59.10
51029;DHT22;37054;52.054;8.600;2024-02-21T04:08:53;13.80;59.00
51029;DHT22;37054;52.054;8.600;2024-02-21T04:11:19;13.80;58.80
51029;DHT22;37054;52.054;8.600;2024-02-21T04:13:45;13.80;59.00
51029;DHT22;37054;52.054;8.600;2024-02-21T04:16:10;13.90;58.90
51029;DHT22;37054;52.054;8.600;2024-02-21T04:18:36;13.80;58.60
51029;DHT22;37054;52.054;8.600;2024-02-21T04:21:01;13.80;58.80
51029;DHT22;37054;52.054;8.600;2024-02-21T04:23:27;13.80;58.90
51029;DHT22;37054;52.054;8.600;2024-02-21T04:25:52;13.80;58.80
51029;DHT22;37054;52.054;8.600;2024-02-21T04:28:18;13.80;58.80
51029;DHT22;37054;52.054;8.600;2024-02-21T04:30:43;13.80;58.70
51029;DHT22;37054;52.054;8.600;2024-02-21T04:33:09;13.80;58.70
51029;DHT22;37054;52.054;8.600;2024-02-21T04:35:36;13.80;58.70
51029;DHT22;37054;52.054;8.600;2024-02-21T04:38:02;13.80;58.70
51029;DHT22;37054;52.054;8.600;2024-02-21T04:40:27;13.80;58.70
51029;DHT22;37054;52.054;8.600;2024-02-21T04:42:54;13.80;58.70
51029;DHT22;37054;52.054;8.600;2024-02-21T04:45:19;13.80;58.80
51029;DHT22;37054;52.054;8.600;2024-02-21T04:47:45;13.90;58.80
51029;DHT22;37054;52.054;8.600;2024-02-21T04:50:10;13.90;58.90
51029;DHT22;37054;52.054;8.600;2024-02-21T04:52:36;13.80;58.90
51029;DHT22;37054;52.054;8.600;2024-02-21T04:55:01;13.90;58.80
51029;DHT22;37054;52.054;8.600;2024-02-21T04:57:27;13.90;58.80
51029;DHT22;37054;52.054;8.600;2024-02-21T04:59:52;13.80;59.00
51029;DHT22;37054;52.054;8.600;2024-02-21T05:02:18;13.80;58.90
51029;DHT22;37054;52.054;8.600;2024-02-21T05:04:45;13.80;59.00
51029;DHT22;37054;52.054;8.600;2024-02-21T05:07:10;13.80;59.30
51029;DHT22;37054;52.054;8.600;2024-02-21T05:09:37;13.80;59.30
51029;DHT22;37054;52.054;8.600;2024-02-21T05:12:03;13.70;59.50
51029;DHT22;37054;52.054;8.600;2024-02-21T05:14:29;13.60;59.70
51029;DHT22;37054;52.054;8.600;2024-02-21T05:16:54;13.60;59.90
51029;DHT22;37054;52.054;8.600;2024-02-21T05:19:20;13.50;60.00
51029;DHT22;37054;52.054;8.600;2024-02-21T05:21:45;13.50;60.10
51029;DHT22;37054;52.054;8.600;2024-02-21T05:24:11;13.60;60.20
51029;DHT22;37054;52.054;8.600;2024-02-21T05:26:37;13.60;60.30
51029;DHT22;37054;52.054;8.600;2024-02-21T05:29:02;13.60;60.30
51029;DHT22;37054;52.054;8.600;2024-02-21T05:34:16;13.60;60.30
51029;DHT22;37054;52.054;8.600;2024-02-21T05:36:42;13.60;60.20
51029;DHT22;37054;52.054;8.600;2024-02-21T05:39:07;13.60;60.20
51029;DHT22;37054;52.054;8.600;2024-02-21T05:41:33;13.60;60.20
51029;DHT22;37054;52.054;8.600;2024-02-21T05:43:58;13.60;60.10
51029;DHT22;37054;52.054;8.600;2024-02-21T05:46:24;13.60;60.30
51029;DHT22;37054;52.054;8.600;2024-02-21T05:48:49;13.50;60.20
51029;DHT22;37054;52.054;8.600;2024-02-21T05:51:15;13.60;60.30
51029;DHT22;37054;52.054;8.600;2024-02-21T05:53:40;13.60;60.30
51029;DHT22;37054;52.054;8.600;2024-02-21T05:56:11;13.50;60.30
51029;DHT22;37054;52.054;8.600;2024-02-21T05:58:37;13.50;60.40
51029;DHT22;37054;52.054;8.600;2024-02-21T06:01:02;13.50;60.50
51029;DHT22;37054;52.054;8.600;2024-02-21T06:03:29;13.50;60.50
51029;DHT22;37054;52.054;8.600;2024-02-21T06:05:54;13.60;60.50
51029;DHT22;37054;52.054;8.600;2024-02-21T06:08:20;13.60;60.50
51029;DHT22;37054;52.054;8.600;2024-02-21T06:10:46;13.60;60.40
51029;DHT22;37054;52.054;8.600;2024-02-21T06:13:12;13.50;60.40
51029;DHT22;37054;52.054;8.600;2024-02-21T06:15:38;13.60;60.50
51029;DHT22;37054;52.054;8.600;2024-02-21T06:18:03;13.60;60.50
51029;DHT22;37054;52.054;8.600;2024-02-21T06:20:29;13.60;60.30
51029;DHT22;37054;52.054;8.600;2024-02-21T06:22:54;13.60;60.30
51029;DHT22;37054;52.054;8.600;2024-02-21T06:25:20;13.60;60.30
51029;DHT22;37054;52.054;8.600;2024-02-21T06:27:45;13.60;60.30
51029;DHT22;37054;52.054;8.600;2024-02-21T06:30:11;13.60;60.30
51029;DHT22;37054;52.054;8.600;2024-02-21T06:32:38;13.60;60.20
51029;DHT22;37054;52.054;8.600;2024-02-21T06:35:04;13.60;60.10
51029;DHT22;37054;52.054;8.600;2024-02-21T06:37:30;13.60;60.00
51029;DHT22;37054;52.054;8.600;2024-02-21T06:39:57;13.70;59.90
51029;DHT22;37054;52.054;8.600;2024-02-21T06:42:25;13.60;59.90
51029;DHT22;37054;52.054;8.600;2024-02-21T06:44:51;13.60;59.80
51029;DHT22;37054;52.054;8.600;2024-02-21T06:47:17;13.60;60.00
51029;DHT22;37054;52.054;8.600;2024-02-21T06:49:42;13.60;60.00
51029;DHT22;37054;52.054;8.600;2024-02-21T06:52:08;13.70;60.00
51029;DHT22;37054;52.054;8.600;2024-02-21T06:54:33;13.70;59.80
51029;DHT22;37054;52.054;8.600;2024-02-21T06:56:59;13.70;59.70
51029;DHT22;37054;52.054;8.600;2024-02-21T06:59:24;13.70;59.80
51029;DHT22;37054;52.054;8.600;2024-02-21T07:01:53;13.70;59.50
51029;DHT22;37054;52.054;8.600;2024-02-21T07:04:19;13.70;59.50
51029;DHT22;37054;52.054;8.600;2024-02-21T07:06:45;13.80;59.50
51029;DHT22;37054;52.054;8.600;2024-02-21T07:09:11;13.80;59.60
51029;DHT22;37054;52.054;8.600;2024-02-21T07:11:36;13.80;59.00
51029;DHT22;37054;52.054;8.600;2024-02-21T07:14:02;13.80;59.00
51029;DHT22;37054;52.054;8.600;2024-02-21T07:16:27;13.80;58.70
51029;DHT22;37054;52.054;8.600;2024-02-21T07:18:54;13.80;58.80
51029;DHT22;37054;52.054;8.600;2024-02-21T07:21:20;13.90;58.70
51029;DHT22;37054;52.054;8.600;2024-02-21T07:23:45;13.90;58.60
51029;DHT22;37054;52.054;8.600;2024-02-21T07:26:11;13.90;58.40
51029;DHT22;37054;52.054;8.600;2024-02-21T07:28:36;14.00;58.10
51029;DHT22;37054;52.054;8.600;2024-02-21T07:31:03;14.00;58.00
51029;DHT22;37054;52.054;8.600;2024-02-21T07:33:29;14.00;57.90
51029;DHT22;37054;52.054;8.600;2024-02-21T07:35:56;14.00;58.00
51029;DHT22;37054;52.054;8.600;2024-02-21T07:38:21;14.10;57.80
51029;DHT22;37054;52.054;8.600;2024-02-21T07:40:47;14.20;57.40
51029;DHT22;37054;52.054;8.600;2024-02-21T07:43:13;14.10;57.40
51029;DHT22;37054;52.054;8.600;2024-02-21T07:45:39;14.10;57.40
51029;DHT22;37054;52.054;8.600;2024-02-21T07:48:05;14.20;57.10
51029;DHT22;37054;52.054;8.600;2024-02-21T07:50:31;14.20;57.00
51029;DHT22;37054;52.054;8.600;2024-02-21T07:52:57;14.20;57.00
51029;DHT22;37054;52.054;8.600;2024-02-21T07:55:22;14.30;56.90
51029;DHT22;37054;52.054;8.600;2024-02-21T07:57:48;14.30;56.70
51029;DHT22;37054;52.054;8.600;2024-02-21T08:00:15;14.30;56.70
51029;DHT22;37054;52.054;8.600;2024-02-21T08:02:45;14.40;56.60
51029;DHT22;37054;52.054;8.600;2024-02-21T08:05:11;14.40;56.40
51029;DHT22;37054;52.054;8.600;2024-02-21T08:07:38;14.40;56.50
51029;DHT22;37054;52.054;8.600;2024-02-21T08:10:04;14.50;56.50
51029;DHT22;37054;52.054;8.600;2024-02-21T08:12:29;14.60;56.20
51029;DHT22;37054;52.054;8.600;2024-02-21T08:14:55;14.60;56.50
51029;DHT22;37054;52.054;8.600;2024-02-21T08:17:20;14.70;56.20
51029;DHT22;37054;52.054;8.600;2024-02-21T08:19:46;14.70;56.00
51029;DHT22;37054;52.054;8.600;2024-02-21T08:22:13;14.70;56.20
51029;DHT22;37054;52.054;8.600;2024-02-21T08:24:39;14.80;56.10
51029;DHT22;37054;52.054;8.600;2024-02-21T08:27:04;14.90;55.70
51029;DHT22;37054;52.054;8.600;2024-02-21T08:29:30;14.90;55.60
51029;DHT22;37054;52.054;8.600;2024-02-21T08:31:55;15.00;55.50
51029;DHT22;37054;52.054;8.600;2024-02-21T08:34:21;15.00;55.50
51029;DHT22;37054;52.054;8.600;2024-02-21T08:36:46;15.10;55.40
51029;DHT22;37054;52.054;8.600;2024-02-21T08:39:12;15.20;55.40
51029;DHT22;37054;52.054;8.600;2024-02-21T08:41:42;15.30;54.80
51029;DHT22;37054;52.054;8.600;2024-02-21T08:44:07;15.40;54.90
51029;DHT22;37054;52.054;8.600;2024-02-21T08:46:33;15.50;54.20
51029;DHT22;37054;52.054;8.600;2024-02-21T08:48:59;15.60;53.60
51029;DHT22;37054;52.054;8.600;2024-02-21T08:51:24;15.80;53.90
51029;DHT22;37054;52.054;8.600;2024-02-21T08:53:49;15.90;53.30
51029;DHT22;37054;52.054;8.600;2024-02-21T08:56:15;16.00;52.70
51029;DHT22;37054;52.054;8.600;2024-02-21T08:58:41;16.10;52.70
51029;DHT22;37054;52.054;8.600;2024-02-21T09:01:07;16.20;52.60
51029;DHT22;37054;52.054;8.600;2024-02-21T09:03:37;16.30;52.40
51029;DHT22;37054;52.054;8.600;2024-02-21T09:06:04;16.40;52.50
51029;DHT22;37054;52.054;8.600;2024-02-21T09:08:29;16.60;52.10
51029;DHT22;37054;52.054;8.600;2024-02-21T09:10:55;16.70;51.60
51029;DHT22;37054;52.054;8.600;2024-02-21T09:13:20;16.80;51.70
51029;DHT22;37054;52.054;8.600;2024-02-21T09:15:47;17.00;51.40
51029;DHT22;37054;52.054;8.600;2024-02-21T09:18:14;17.10;50.90
51029;DHT22;37054;52.054;8.600;2024-02-21T09:20:39;17.20;50.10
51029;DHT22;37054;52.054;8.600;2024-02-21T09:23:05;17.30;49.70
51029;DHT22;37054;52.054;8.600;2024-02-21T09:25:30;17.30;49.50
51029;DHT22;37054;52.054;8.600;2024-02-21T09:27:57;17.40;49.30
51029;DHT22;37054;52.054;8.600;2024-02-21T09:30:24;17.50;48.90
51029;DHT22;37054;52.054;8.600;2024-02-21T09:32:50;17.60;48.10
51029;DHT22;37054;52.054;8.600;2024-02-21T09:35:15;17.60;47.60
51029;DHT22;37054;52.054;8.600;2024-02-21T09:37:41;17.60;47.80
51029;DHT22;37054;52.054;8.600;2024-02-21T09:40:07;17.70;47.60
51029;DHT22;37054;52.054;8.600;2024-02-21T09:42:39;17.70;48.00
51029;DHT22;37054;52.054;8.600;2024-02-21T09:45:15;17.80;48.10
51029;DHT22;37054;52.054;8.600;2024-02-21T09:48:24;17.90;47.80
51029;DHT22;37054;52.054;8.600;2024-02-21T09:50:51;18.00;47.10
51029;DHT22;37054;52.054;8.600;2024-02-21T09:53:18;18.10;46.70
51029;DHT22;37054;52.054;8.600;2024-02-21T09:55:44;18.10;46.30
51029;DHT22;37054;52.054;8.600;2024-02-21T09:58:11;18.10;45.80
51029;DHT22;37054;52.054;8.600;2024-02-21T10:00:37;18.20;45.70
51029;DHT22;37054;52.054;8.600;2024-02-21T10:03:03;18.30;45.20
51029;DHT22;37054;52.054;8.600;2024-02-21T10:05:37;18.40;45.70
51029;DHT22;37054;52.054;8.600;2024-02-21T10:08:04;18.60;44.50
51029;DHT22;37054;52.054;8.600;2024-02-21T10:10:29;18.60;44.00
51029;DHT22;37054;52.054;8.600;2024-02-21T10:12:55;18.70;44.60
51029;DHT22;37054;52.054;8.600;2024-02-21T10:15:22;18.70;43.50
51029;DHT22;37054;52.054;8.600;2024-02-21T10:17:49;18.70;43.30
51029;DHT22;37054;52.054;8.600;2024-02-21T10:20:15;18.80;43.00
51029;DHT22;37054;52.054;8.600;2024-02-21T10:22:41;18.80;43.30
51029;DHT22;37054;52.054;8.600;2024-02-21T10:25:08;19.00;43.30
51029;DHT22;37054;52.054;8.600;2024-02-21T10:27:34;19.00;42.50
51029;DHT22;37054;52.054;8.600;2024-02-21T10:30:00;19.10;43.50
51029;DHT22;37054;52.054;8.600;2024-02-21T10:32:26;19.20;42.90
51029;DHT22;37054;52.054;8.600;2024-02-21T10:35:04;19.20;42.70
51029;DHT22;37054;52.054;8.600;2024-02-21T10:37:33;19.20;42.50
51029;DHT22;37054;52.054;8.600;2024-02-21T10:39:58;19.20;42.00
51029;DHT22;37054;52.054;8.600;2024-02-21T10:42:27;19.00;41.50
51029;DHT22;37054;52.054;8.600;2024-02-21T10:44:59;18.80;41.40
51029;DHT22;37054;52.054;8.600;2024-02-21T10:47:25;18.80;41.80
51029;DHT22;37054;52.054;8.600;2024-02-21T10:50:00;18.70;41.60
51029;DHT22;37054;52.054;8.600;2024-02-21T10:52:32;18.60;41.70
51029;DHT22;37054;52.054;8.600;2024-02-21T10:55:04;18.50;41.90
51029;DHT22;37054;52.054;8.600;2024-02-21T10:57:32;18.50;42.20
51029;DHT22;37054;52.054;8.600;2024-02-21T11:00:00;18.50;42.20
51029;DHT22;37054;52.054;8.600;2024-02-21T11:02:28;18.40;42.60
51029;DHT22;37054;52.054;8.600;2024-02-21T11:04:57;18.40;43.00
51029;DHT22;37054;52.054;8.600;2024-02-21T11:07:23;18.40;42.90
51029;DHT22;37054;52.054;8.600;2024-02-21T11:09:52;18.40;42.90
51029;DHT22;37054;52.054;8.600;2024-02-21T11:12:21;18.40;42.50
51029;DHT22;37054;52.054;8.600;2024-02-21T11:14:47;18.30;42.10
51029;DHT22;37054;52.054;8.600;2024-02-21T11:17:19;18.10;42.60
51029;DHT22;37054;52.054;8.600;2024-02-21T11:19:48;18.00;43.10
51029;DHT22;37054;52.054;8.600;2024-02-21T11:22:18;18.00;43.10
51029;DHT22;37054;52.054;8.600;2024-02-21T11:24:44;18.00;43.60
51029;DHT22;37054;52.054;8.600;2024-02-21T11:27:13;18.10;43.40
51029;DHT22;37054;52.054;8.600;2024-02-21T11:30:04;18.10;43.50
51029;DHT22;37054;52.054;8.600;2024-02-21T11:32:31;18.10;43.50
51029;DHT22;37054;52.054;8.600;2024-02-21T11:34:57;18.10;43.50
51029;DHT22;37054;52.054;8.600;2024-02-21T11:37:26;18.10;43.30
51029;DHT22;37054;52.054;8.600;2024-02-21T11:39:53;18.10;43.80
51029;DHT22;37054;52.054;8.600;2024-02-21T11:42:18;18.20;43.80
51029;DHT22;37054;52.054;8.600;2024-02-21T11:44:45;18.20;43.50
51029;DHT22;37054;52.054;8.600;2024-02-21T11:47:10;18.20;43.40
51029;DHT22;37054;52.054;8.600;2024-02-21T11:49:38;18.30;43.00
51029;DHT22;37054;52.054;8.600;2024-02-21T11:52:05;18.20;43.10
51029;DHT22;37054;52.054;8.600;2024-02-21T11:54:31;18.20;43.50
51029;DHT22;37054;52.054;8.600;2024-02-21T11:56:56;18.20;43.60
51029;DHT22;37054;52.054;8.600;2024-02-21T11:59:22;18.20;43.10
51029;DHT22;37054;52.054;8.600;2024-02-21T12:01:49;18.00;43.40
51029;DHT22;37054;52.054;8.600;2024-02-21T12:04:15;18.00;43.40
51029;DHT22;37054;52.054;8.600;2024-02-21T12:06:43;17.80;43.50
51029;DHT22;37054;52.054;8.600;2024-02-21T12:09:09;17.70;43.70
51029;DHT22;37054;52.054;8.600;2024-02-21T12:11:35;17.60;43.50
51029;DHT22;37054;52.054;8.600;2024-02-21T12:14:02;17.40;43.60
51029;DHT22;37054;52.054;8.600;2024-02-21T12:16:29;17.20;44.40
51029;DHT22;37054;52.054;8.600;2024-02-21T12:18:59;17.10;44.60
51029;DHT22;37054;52.054;8.600;2024-02-21T12:21:31;17.00;44.70
51029;DHT22;37054;52.054;8.600;2024-02-21T12:23:58;17.00;45.10
51029;DHT22;37054;52.054;8.600;2024-02-21T12:26:24;16.90;45.40
51029;DHT22;37054;52.054;8.600;2024-02-21T12:28:50;16.90;45.50
51029;DHT22;37054;52.054;8.600;2024-02-21T12:31:16;16.90;45.80
51029;DHT22;37054;52.054;8.600;2024-02-21T12:33:42;16.90;46.00
51029;DHT22;37054;52.054;8.600;2024-02-21T12:36:08;16.90;45.90
51029;DHT22;37054;52.054;8.600;2024-02-21T12:38:37;16.90;46.00
51029;DHT22;37054;52.054;8.600;2024-02-21T12:41:03;16.90;46.00
51029;DHT22;37054;52.054;8.600;2024-02-21T12:43:28;16.90;46.30
51029;DHT22;37054;52.054;8.600;2024-02-21T12:45:54;17.00;46.50
51029;DHT22;37054;52.054;8.600;2024-02-21T12:48:19;17.00;46.40
51029;DHT22;37054;52.054;8.600;2024-02-21T12:50:49;17.00;46.40
51029;DHT22;37054;52.054;8.600;2024-02-21T12:53:18;17.00;46.20
51029;DHT22;37054;52.054;8.600;2024-02-21T12:55:45;17.00;46.00
51029;DHT22;37054;52.054;8.600;2024-02-21T12:58:10;16.90;46.20
51029;DHT22;37054;52.054;8.600;2024-02-21T13:00:36;16.90;46.50
51029;DHT22;37054;52.054;8.600;2024-02-21T13:03:03;17.00;46.30
51029;DHT22;37054;52.054;8.600;2024-02-21T13:05:28;16.90;46.50
51029;DHT22;37054;52.054;8.600;2024-02-21T13:07:54;17.00;46.40
51029;DHT22;37054;52.054;8.600;2024-02-21T13:10:19;17.00;46.50
51029;DHT22;37054;52.054;8.600;2024-02-21T13:12:45;16.90;46.90
51029;DHT22;37054;52.054;8.600;2024-02-21T13:15:10;17.00;46.90
51029;DHT22;37054;52.054;8.600;2024-02-21T13:17:37;17.00;46.60
51029;DHT22;37054;52.054;8.600;2024-02-21T13:20:03;17.00;46.80
51029;DHT22;37054;52.054;8.600;2024-02-21T13:22:29;17.00;46.80
51029;DHT22;37054;52.054;8.600;2024-02-21T13:24:54;17.00;46.60
51029;DHT22;37054;52.054;8.600;2024-02-21T13:27:20;16.90;46.70
51029;DHT22;37054;52.054;8.600;2024-02-21T13:29:45;16.90;47.00
51029;DHT22;37054;52.054;8.600;2024-02-21T13:32:11;16.90;47.10
51029;DHT22;37054;52.054;8.600;2024-02-21T13:34:36;16.90;47.00
51029;DHT22;37054;52.054;8.600;2024-02-21T13:37:02;17.00;47.20
51029;DHT22;37054;52.054;8.600;2024-02-21T13:39:27;17.00;47.30
51029;DHT22;37054;52.054;8.600;2024-02-21T13:41:53;17.00;47.20
51029;DHT22;37054;52.054;8.600;2024-02-21T13:44:18;17.00;46.80
51029;DHT22;37054;52.054;8.600;2024-02-21T13:46:44;16.80;46.40
51029;DHT22;37054;52.054;8.600;2024-02-21T13:49:10;16.70;46.60
51029;DHT22;37054;52.054;8.600;2024-02-21T13:51:35;16.70;46.60
51029;DHT22;37054;52.054;8.600;2024-02-21T13:54:04;16.50;46.90
51029;DHT22;37054;52.054;8.600;2024-02-21T13:56:30;16.60;46.90
51029;DHT22;37054;52.054;8.600;2024-02-21T13:58:58;16.50;46.80
51029;DHT22;37054;52.054;8.600;2024-02-21T14:01:23;16.40;47.10
51029;DHT22;37054;52.054;8.600;2024-02-21T14:03:49;16.40;46.80
51029;DHT22;37054;52.054;8.600;2024-02-21T14:06:14;16.30;46.80
51029;DHT22;37054;52.054;8.600;2024-02-21T14:08:40;16.30;46.70
51029;DHT22;37054;52.054;8.600;2024-02-21T14:11:06;16.30;46.70
51029;DHT22;37054;52.054;8.600;2024-02-21T14:13:32;16.30;46.70
51029;DHT22;37054;52.054;8.600;2024-02-21T14:15:57;16.30;46.60
51029;DHT22;37054;52.054;8.600;2024-02-21T14:18:23;16.30;46.40
51029;DHT22;37054;52.054;8.600;2024-02-21T14:20:48;16.30;46.50
51029;DHT22;37054;52.054;8.600;2024-02-21T14:23:14;16.30;46.30
51029;DHT22;37054;52.054;8.600;2024-02-21T14:25:39;16.30;46.40
51029;DHT22;37054;52.054;8.600;2024-02-21T14:28:08;16.30;46.40
51029;DHT22;37054;52.054;8.600;2024-02-21T14:30:35;16.30;46.60
51029;DHT22;37054;52.054;8.600;2024-02-21T14:33:00;16.30;46.60
51029;DHT22;37054;52.054;8.600;2024-02-21T14:35:25;16.40;46.50
51029;DHT22;37054;52.054;8.600;2024-02-21T14:37:52;16.40;46.60
51029;DHT22;37054;52.054;8.600;2024-02-21T14:40:23;16.50;46.60
51029;DHT22;37054;52.054;8.600;2024-02-21T14:42:49;16.50;46.40
51029;DHT22;37054;52.054;8.600;2024-02-21T14:45:14;16.50;46.20
51029;DHT22;37054;52.054;8.600;2024-02-21T14:47:40;16.50;46.20
51029;DHT22;37054;52.054;8.600;2024-02-21T14:50:06;16.50;45.80
51029;DHT22;37054;52.054;8.600;2024-02-21T14:52:32;16.50;45.80
51029;DHT22;37054;52.054;8.600;2024-02-21T14:54:58;16.50;45.60
51029;DHT22;37054;52.054;8.600;2024-02-21T14:57:24;16.50;45.60
51029;DHT22;37054;52.054;8.600;2024-02-21T14:59:50;16.50;45.70
51029;DHT22;37054;52.054;8.600;2024-02-21T15:02:21;16.50;45.80
51029;DHT22;37054;52.054;8.600;2024-02-21T15:04:47;16.50;45.70
51029;DHT22;37054;52.054;8.600;2024-02-21T15:07:12;16.50;45.70
51029;DHT22;37054;52.054;8.600;2024-02-21T15:09:38;16.50;45.70
51029;DHT22;37054;52.054;8.600;2024-02-21T15:12:03;16.50;45.70
51029;DHT22;37054;52.054;8.600;2024-02-21T15:14:29;16.40;45.70
51029;DHT22;37054;52.054;8.600;2024-02-21T15:16:54;16.40;45.60
51029;DHT22;37054;52.054;8.600;2024-02-21T15:19:20;16.30;45.60
51029;DHT22;37054;52.054;8.600;2024-02-21T15:21:45;16.30;45.80
51029;DHT22;37054;52.054;8.600;2024-02-21T15:24:11;16.30;46.00
51029;DHT22;37054;52.054;8.600;2024-02-21T15:26:36;16.30;45.90